sensor_id;sensor_type;location;lat;lon;timestamp;P1;durP1;ratioP1;P2;durP2;ratioP2
65009;SDS011;51556;50.002;22.014;2023-02-03T00:00:09;29.40;;;13.80;;
65009;SDS011;51556;50.002;22.014;2023-02-03T00:02:35;10.40;;;4.90;;
65009;SDS011;51556;50.002;22.014;2023-02-03T00:05:01;33.90;;;17.50;;
65009;SDS011;51556;50.002;22.014;2023-02-03T00:07:27;8.60;;;5.00;;
65009;SDS011;51556;50.002;22.014;2023-02-03T00:09:54;24.40;;;13.90;;
65009;SDS011;51556;50.002;22.014;2023-02-03T00:12:20;7.80;;;4.70;;
65009;SDS011;51556;50.002;22.014;2023-02-03T00:14:46;7.80;;;3.40;;
65009;SDS011;51556;50.002;22.014;2023-02-03T00:17:11;9.00;;;4.30;;
65009;SDS011;51556;50.002;22.014;2023-02-03T00:19:39;7.60;;;3.60;;
65009;SDS011;51556;50.002;22.014;2023-02-03T00:22:04;8.10;;;4.50;;
65009;SDS011;51556;50.002;22.014;2023-02-03T00:24:30;7.10;;;3.40;;
65009;SDS011;51556;50.002;22.014;2023-02-03T00:26:55;7.00;;;3.00;;
65009;SDS011;51556;50.002;22.014;2023-02-03T00:29:21;5.60;;;2.60;;
65009;SDS011;51556;50.002;22.014;2023-02-03T00:31:49;7.30;;;3.90;;
65009;SDS011;51556;50.002;22.014;2023-02-03T00:34:16;6.90;;;3.50;;
65009;SDS011;51556;50.002;22.014;2023-02-03T00:36:41;6.80;;;4.20;;
65009;SDS011;51556;50.002;22.014;2023-02-03T00:39:07;5.70;;;3.20;;
65009;SDS011;51556;50.002;22.014;2023-02-03T00:41:32;8.70;;;4.90;;
65009;SDS011;51556;50.002;22.014;2023-02-03T00:43:58;6.40;;;3.60;;
65009;SDS011;51556;50.002;22.014;2023-02-03T00:46:23;7.80;;;4.20;;
65009;SDS011;51556;50.002;22.014;2023-02-03T00:48:49;7.40;;;4.70;;
65009;SDS011;51556;50.002;22.014;2023-02-03T00:51:14;8.70;;;6.30;;
65009;SDS011;51556;50.002;22.014;2023-02-03T00:53:40;9.40;;;4.80;;
65009;SDS011;51556;50.002;22.014;2023-02-03T00:56:05;7.40;;;4.50;;
65009;SDS011;51556;50.002;22.014;2023-02-03T01:01:02;5.60;;;3.20;;
65009;SDS011;51556;50.002;22.014;2023-02-03T01:03:28;4.00;;;2.50;;
65009;SDS011;51556;50.002;22.014;2023-02-03T01:05:53;4.10;;;2.20;;
65009;SDS011;51556;50.002;22.014;2023-02-03T01:08:19;3.80;;;2.50;;
65009;SDS011;51556;50.002;22.014;2023-02-03T01:10:44;4.70;;;2.80;;
65009;SDS011;51556;50.002;22.014;2023-02-03T01:13:10;4.30;;;2.20;;
65009;SDS011;51556;50.002;22.014;2023-02-03T01:15:35;5.00;;;2.80;;
65009;SDS011;51556;50.002;22.014;2023-02-03T01:18:01;4.50;;;2.50;;
65009;SDS011;51556;50.002;22.014;2023-02-03T01:20:26;4.40;;;2.40;;
65009;SDS011;51556;50.002;22.014;2023-02-03T01:22:52;5.20;;;2.70;;
65009;SDS011;51556;50.002;22.014;2023-02-03T01:25:17;4.40;;;2.50;;
65009;SDS011;51556;50.002;22.014;2023-02-03T01:27:43;5.10;;;2.40;;
65009;SDS011;51556;50.002;22.014;2023-02-03T01:30:09;4.20;;;2.20;;
65009;SDS011;51556;50.002;22.014;2023-02-03T01:32:35;5.00;;;2.00;;
65009;SDS011;51556;50.002;22.014;2023-02-03T01:35:00;5.50;;;2.20;;
65009;SDS011;51556;50.002;22.014;2023-02-03T01:37:25;4.80;;;2.50;;
65009;SDS011;51556;50.002;22.014;2023-02-03T01:39:51;5.10;;;2.60;;
65009;SDS011;51556;50.002;22.014;2023-02-03T01:42:16;3.90;;;1.90;;
65009;SDS011;51556;50.002;22.014;2023-02-03T01:44:43;4.30;;;2.20;;
65009;SDS011;51556;50.002;22.014;2023-02-03T01:48:12;6.30;;;2.70;;
65009;SDS011;51556;50.002;22.014;2023-02-03T01:50:20;12.70;;;3.50;;
65009;SDS011;51556;50.002;22.014;2023-02-03T01:52:50;5.70;;;3.40;;
65009;SDS011;51556;50.002;22.014;2023-02-03T01:55:22;4.50;;;2.60;;
65009;SDS011;51556;50.002;22.014;2023-02-03T01:57:57;4.50;;;2.10;;
65009;SDS011;51556;50.002;22.014;2023-02-03T02:00:26;5.00;;;2.80;;
65009;SDS011;51556;50.002;22.014;2023-02-03T02:02:52;4.30;;;2.40;;
65009;SDS011;51556;50.002;22.014;2023-02-03T02:05:27;4.40;;;3.20;;
65009;SDS011;51556;50.002;22.014;2023-02-03T02:07:57;6.90;;;4.10;;
65009;SDS011;51556;50.002;22.014;2023-02-03T02:10:24;5.90;;;3.90;;
65009;SDS011;51556;50.002;22.014;2023-02-03T02:12:50;6.50;;;3.90;;
65009;SDS011;51556;50.002;22.014;2023-02-03T02:15:17;4.50;;;3.00;;
65009;SDS011;51556;50.002;22.014;2023-02-03T02:20:34;4.60;;;2.50;;
65009;SDS011;51556;50.002;22.014;2023-02-03T02:45:52;6.60;;;2.70;;
65009;SDS011;51556;50.002;22.014;2023-02-03T02:50:56;3.50;;;1.80;;
65009;SDS011;51556;50.002;22.014;2023-02-03T02:53:25;3.40;;;2.20;;
65009;SDS011;51556;50.002;22.014;2023-02-03T02:55:56;2.20;;;1.30;;
65009;SDS011;51556;50.002;22.014;2023-02-03T02:58:26;2.30;;;1.20;;
65009;SDS011;51556;50.002;22.014;2023-02-03T03:00:55;1.70;;;0.80;;
65009;SDS011;51556;50.002;22.014;2023-02-03T03:03:21;3.70;;;1.40;;
65009;SDS011;51556;50.002;22.014;2023-02-03T03:05:53;3.10;;;1.70;;
65009;SDS011;51556;50.002;22.014;2023-02-03T03:08:31;3.50;;;1.70;;
65009;SDS011;51556;50.002;22.014;2023-02-03T03:11:03;2.70;;;1.30;;
65009;SDS011;51556;50.002;22.014;2023-02-03T03:13:40;3.10;;;1.10;;
65009;SDS011;51556;50.002;22.014;2023-02-03T03:16:09;3.20;;;1.30;;
65009;SDS011;51556;50.002;22.014;2023-02-03T03:18:43;4.60;;;1.80;;
65009;SDS011;51556;50.002;22.014;2023-02-03T03:21:13;2.40;;;1.50;;
65009;SDS011;51556;50.002;22.014;2023-02-03T03:26:29;5.90;;;2.30;;
65009;SDS011;51556;50.002;22.014;2023-02-03T03:29:02;7.10;;;4.30;;
65009;SDS011;51556;50.002;22.014;2023-02-03T03:31:42;4.80;;;2.60;;
65009;SDS011;51556;50.002;22.014;2023-02-03T03:34:08;3.90;;;2.50;;
65009;SDS011;51556;50.002;22.014;2023-02-03T03:39:06;7.00;;;3.00;;
65009;SDS011;51556;50.002;22.014;2023-02-03T03:41:39;3.80;;;2.40;;
65009;SDS011;51556;50.002;22.014;2023-02-03T03:44:10;10.90;;;5.30;;
65009;SDS011;51556;50.002;22.014;2023-02-03T03:46:41;8.70;;;4.10;;
65009;SDS011;51556;50.002;22.014;2023-02-03T03:49:16;6.40;;;2.70;;
65009;SDS011;51556;50.002;22.014;2023-02-03T03:51:57;5.80;;;2.50;;
65009;SDS011;51556;50.002;22.014;2023-02-03T03:54:27;4.70;;;2.40;;
65009;SDS011;51556;50.002;22.014;2023-02-03T03:59:55;7.10;;;2.80;;
65009;SDS011;51556;50.002;22.014;2023-02-03T04:02:21;5.70;;;2.60;;
65009;SDS011;51556;50.002;22.014;2023-02-03T04:04:47;5.90;;;3.30;;
65009;SDS011;51556;50.002;22.014;2023-02-03T04:07:13;4.40;;;2.30;;
65009;SDS011;51556;50.002;22.014;2023-02-03T04:09:39;5.60;;;2.50;;
65009;SDS011;51556;50.002;22.014;2023-02-03T04:12:21;4.30;;;2.40;;
65009;SDS011;51556;50.002;22.014;2023-02-03T04:14:47;4.70;;;2.90;;
65009;SDS011;51556;50.002;22.014;2023-02-03T04:17:13;4.80;;;2.80;;
65009;SDS011;51556;50.002;22.014;2023-02-03T04:19:38;5.80;;;3.20;;
65009;SDS011;51556;50.002;22.014;2023-02-03T04:22:04;5.50;;;3.10;;
65009;SDS011;51556;50.002;22.014;2023-02-03T04:24:29;6.40;;;2.90;;
65009;SDS011;51556;50.002;22.014;2023-02-03T04:26:54;3.90;;;2.30;;
65009;SDS011;51556;50.002;22.014;2023-02-03T04:29:20;5.10;;;2.60;;
65009;SDS011;51556;50.002;22.014;2023-02-03T04:31:45;5.90;;;2.00;;
65009;SDS011;51556;50.002;22.014;2023-02-03T04:34:11;4.50;;;2.10;;
65009;SDS011;51556;50.002;22.014;2023-02-03T04:36:36;4.10;;;2.10;;
65009;SDS011;51556;50.002;22.014;2023-02-03T04:39:02;4.90;;;2.00;;
65009;SDS011;51556;50.002;22.014;2023-02-03T04:41:27;4.80;;;2.40;;
65009;SDS011;51556;50.002;22.014;2023-02-03T04:43:52;5.50;;;2.20;;
65009;SDS011;51556;50.002;22.014;2023-02-03T04:46:18;4.20;;;2.00;;
65009;SDS011;51556;50.002;22.014;2023-02-03T04:48:43;5.80;;;2.50;;
65009;SDS011;51556;50.002;22.014;2023-02-03T04:51:09;3.90;;;2.10;;
65009;SDS011;51556;50.002;22.014;2023-02-03T04:53:35;3.10;;;2.20;;
65009;SDS011;51556;50.002;22.014;2023-02-03T04:56:00;6.00;;;2.20;;
65009;SDS011;51556;50.002;22.014;2023-02-03T04:58:26;7.30;;;2.50;;
65009;SDS011;51556;50.002;22.014;2023-02-03T05:00:52;3.50;;;1.80;;
65009;SDS011;51556;50.002;22.014;2023-02-03T05:03:18;6.90;;;2.60;;
65009;SDS011;51556;50.002;22.014;2023-02-03T05:05:44;6.40;;;2.50;;
65009;SDS011;51556;50.002;22.014;2023-02-03T05:08:09;3.20;;;2.10;;
65009;SDS011;51556;50.002;22.014;2023-02-03T05:10:35;7.80;;;3.80;;
65009;SDS011;51556;50.002;22.014;2023-02-03T05:13:00;4.70;;;2.20;;
65009;SDS011;51556;50.002;22.014;2023-02-03T05:15:26;2.70;;;2.10;;
65009;SDS011;51556;50.002;22.014;2023-02-03T05:17:52;3.50;;;2.00;;
65009;SDS011;51556;50.002;22.014;2023-02-03T05:23:31;5.40;;;2.30;;
65009;SDS011;51556;50.002;22.014;2023-02-03T05:25:57;4.80;;;2.70;;
65009;SDS011;51556;50.002;22.014;2023-02-03T05:28:22;4.10;;;2.70;;
65009;SDS011;51556;50.002;22.014;2023-02-03T05:30:48;4.70;;;3.10;;
65009;SDS011;51556;50.002;22.014;2023-02-03T05:33:13;4.30;;;2.20;;
65009;SDS011;51556;50.002;22.014;2023-02-03T05:35:39;4.10;;;2.70;;
65009;SDS011;51556;50.002;22.014;2023-02-03T05:38:04;5.20;;;2.40;;
65009;SDS011;51556;50.002;22.014;2023-02-03T05:40:30;6.90;;;3.00;;
65009;SDS011;51556;50.002;22.014;2023-02-03T05:43:14;7.90;;;3.70;;
65009;SDS011;51556;50.002;22.014;2023-02-03T05:45:39;7.00;;;3.70;;
65009;SDS011;51556;50.002;22.014;2023-02-03T05:48:05;10.70;;;4.10;;
65009;SDS011;51556;50.002;22.014;2023-02-03T05:50:34;7.40;;;3.70;;
65009;SDS011;51556;50.002;22.014;2023-02-03T05:53:01;7.70;;;3.80;;
65009;SDS011;51556;50.002;22.014;2023-02-03T05:55:28;5.30;;;3.20;;
65009;SDS011;51556;50.002;22.014;2023-02-03T05:57:54;6.70;;;3.60;;
65009;SDS011;51556;50.002;22.014;2023-02-03T06:00:20;5.90;;;3.30;;
65009;SDS011;51556;50.002;22.014;2023-02-03T06:02:59;4.90;;;3.00;;
65009;SDS011;51556;50.002;22.014;2023-02-03T06:05:29;7.90;;;4.80;;
65009;SDS011;51556;50.002;22.014;2023-02-03T06:07:56;7.80;;;3.80;;
65009;SDS011;51556;50.002;22.014;2023-02-03T06:10:21;6.60;;;2.80;;
65009;SDS011;51556;50.002;22.014;2023-02-03T06:12:47;7.40;;;3.10;;
65009;SDS011;51556;50.002;22.014;2023-02-03T06:15:14;4.60;;;2.90;;
65009;SDS011;51556;50.002;22.014;2023-02-03T06:17:42;4.30;;;2.70;;
65009;SDS011;51556;50.002;22.014;2023-02-03T06:20:09;7.60;;;3.10;;
65009;SDS011;51556;50.002;22.014;2023-02-03T06:22:36;11.10;;;7.10;;
65009;SDS011;51556;50.002;22.014;2023-02-03T06:25:01;8.60;;;4.50;;
65009;SDS011;51556;50.002;22.014;2023-02-03T06:27:27;78.70;;;41.90;;
65009;SDS011;51556;50.002;22.014;2023-02-03T06:29:52;130.50;;;41.60;;
65009;SDS011;51556;50.002;22.014;2023-02-03T06:32:18;188.20;;;60.30;;
65009;SDS011;51556;50.002;22.014;2023-02-03T06:34:43;32.20;;;12.50;;
65009;SDS011;51556;50.002;22.014;2023-02-03T06:37:09;12.50;;;6.90;;
65009;SDS011;51556;50.002;22.014;2023-02-03T06:39:34;6.30;;;3.50;;
65009;SDS011;51556;50.002;22.014;2023-02-03T06:42:02;7.20;;;3.50;;
65009;SDS011;51556;50.002;22.014;2023-02-03T06:44:30;7.60;;;3.20;;
65009;SDS011;51556;50.002;22.014;2023-02-03T06:46:56;8.40;;;4.10;;
65009;SDS011;51556;50.002;22.014;2023-02-03T06:49:22;7.00;;;3.80;;
65009;SDS011;51556;50.002;22.014;2023-02-03T06:54:30;8.70;;;3.60;;
65009;SDS011;51556;50.002;22.014;2023-02-03T06:57:04;6.70;;;3.30;;
65009;SDS011;51556;50.002;22.014;2023-02-03T06:59:29;12.00;;;6.50;;
65009;SDS011;51556;50.002;22.014;2023-02-03T07:01:55;13.60;;;7.20;;
65009;SDS011;51556;50.002;22.014;2023-02-03T07:04:21;9.30;;;3.70;;
65009;SDS011;51556;50.002;22.014;2023-02-03T07:06:46;20.30;;;8.80;;
65009;SDS011;51556;50.002;22.014;2023-02-03T07:09:12;11.10;;;5.60;;
65009;SDS011;51556;50.002;22.014;2023-02-03T07:11:38;19.20;;;7.60;;
65009;SDS011;51556;50.002;22.014;2023-02-03T07:14:03;16.80;;;8.00;;
65009;SDS011;51556;50.002;22.014;2023-02-03T07:16:29;17.40;;;7.10;;
65009;SDS011;51556;50.002;22.014;2023-02-03T07:18:55;8.20;;;4.20;;
65009;SDS011;51556;50.002;22.014;2023-02-03T07:21:21;7.20;;;3.60;;
65009;SDS011;51556;50.002;22.014;2023-02-03T07:23:46;10.70;;;4.10;;
65009;SDS011;51556;50.002;22.014;2023-02-03T07:26:13;11.10;;;5.00;;
65009;SDS011;51556;50.002;22.014;2023-02-03T07:28:39;8.40;;;3.90;;
65009;SDS011;51556;50.002;22.014;2023-02-03T07:31:04;8.00;;;4.10;;
65009;SDS011;51556;50.002;22.014;2023-02-03T07:33:32;13.70;;;4.90;;
65009;SDS011;51556;50.002;22.014;2023-02-03T07:35:58;11.90;;;5.30;;
65009;SDS011;51556;50.002;22.014;2023-02-03T07:38:24;7.90;;;4.00;;
65009;SDS011;51556;50.002;22.014;2023-02-03T07:40:51;11.70;;;6.30;;
65009;SDS011;51556;50.002;22.014;2023-02-03T07:43:17;8.90;;;4.80;;
65009;SDS011;51556;50.002;22.014;2023-02-03T07:45:43;7.90;;;2.70;;
65009;SDS011;51556;50.002;22.014;2023-02-03T07:48:09;5.40;;;2.60;;
65009;SDS011;51556;50.002;22.014;2023-02-03T07:50:34;6.70;;;2.90;;
65009;SDS011;51556;50.002;22.014;2023-02-03T07:53:00;21.60;;;10.00;;
65009;SDS011;51556;50.002;22.014;2023-02-03T07:55:26;9.70;;;4.90;;
65009;SDS011;51556;50.002;22.014;2023-02-03T07:57:52;8.80;;;4.30;;
65009;SDS011;51556;50.002;22.014;2023-02-03T08:00:19;6.10;;;2.80;;
65009;SDS011;51556;50.002;22.014;2023-02-03T08:02:44;7.30;;;4.10;;
65009;SDS011;51556;50.002;22.014;2023-02-03T08:05:11;9.20;;;5.70;;
65009;SDS011;51556;50.002;22.014;2023-02-03T08:07:37;8.50;;;3.80;;
65009;SDS011;51556;50.002;22.014;2023-02-03T08:10:03;7.60;;;5.00;;
65009;SDS011;51556;50.002;22.014;2023-02-03T08:12:29;10.00;;;6.30;;
65009;SDS011;51556;50.002;22.014;2023-02-03T08:14:55;15.30;;;8.60;;
65009;SDS011;51556;50.002;22.014;2023-02-03T08:17:20;8.70;;;7.20;;
65009;SDS011;51556;50.002;22.014;2023-02-03T08:19:46;7.40;;;4.70;;
65009;SDS011;51556;50.002;22.014;2023-02-03T08:22:11;10.30;;;5.10;;
65009;SDS011;51556;50.002;22.014;2023-02-03T08:24:40;9.70;;;4.60;;
65009;SDS011;51556;50.002;22.014;2023-02-03T08:27:11;14.30;;;6.90;;
65009;SDS011;51556;50.002;22.014;2023-02-03T08:29:37;18.60;;;7.30;;
65009;SDS011;51556;50.002;22.014;2023-02-03T08:32:03;25.10;;;10.50;;
65009;SDS011;51556;50.002;22.014;2023-02-03T08:34:28;14.30;;;6.10;;
65009;SDS011;51556;50.002;22.014;2023-02-03T08:36:54;11.80;;;4.60;;
65009;SDS011;51556;50.002;22.014;2023-02-03T08:39:20;13.60;;;6.10;;
65009;SDS011;51556;50.002;22.014;2023-02-03T08:41:45;9.20;;;4.00;;
65009;SDS011;51556;50.002;22.014;2023-02-03T08:44:11;8.20;;;3.90;;
65009;SDS011;51556;50.002;22.014;2023-02-03T08:46:36;5.40;;;3.10;;
65009;SDS011;51556;50.002;22.014;2023-02-03T08:49:07;8.10;;;3.10;;
65009;SDS011;51556;50.002;22.014;2023-02-03T08:51:33;8.30;;;3.60;;
65009;SDS011;51556;50.002;22.014;2023-02-03T08:53:59;9.80;;;3.70;;
65009;SDS011;51556;50.002;22.014;2023-02-03T08:56:24;11.80;;;4.80;;
65009;SDS011;51556;50.002;22.014;2023-02-03T08:58:51;8.90;;;5.00;;
65009;SDS011;51556;50.002;22.014;2023-02-03T09:01:16;9.30;;;4.90;;
65009;SDS011;51556;50.002;22.014;2023-02-03T09:03:42;9.20;;;4.00;;
65009;SDS011;51556;50.002;22.014;2023-02-03T09:06:08;8.40;;;4.60;;
65009;SDS011;51556;50.002;22.014;2023-02-03T09:08:37;8.20;;;3.70;;
65009;SDS011;51556;50.002;22.014;2023-02-03T09:11:07;9.50;;;4.10;;
65009;SDS011;51556;50.002;22.014;2023-02-03T09:13:35;9.70;;;3.50;;
65009;SDS011;51556;50.002;22.014;2023-02-03T09:16:02;8.00;;;4.20;;
65009;SDS011;51556;50.002;22.014;2023-02-03T09:18:27;6.90;;;4.10;;
65009;SDS011;51556;50.002;22.014;2023-02-03T09:20:58;10.50;;;4.60;;
65009;SDS011;51556;50.002;22.014;2023-02-03T09:23:25;7.50;;;3.70;;
65009;SDS011;51556;50.002;22.014;2023-02-03T09:25:51;9.30;;;3.70;;
65009;SDS011;51556;50.002;22.014;2023-02-03T09:28:17;13.50;;;4.90;;
65009;SDS011;51556;50.002;22.014;2023-02-03T09:30:42;12.60;;;4.50;;
65009;SDS011;51556;50.002;22.014;2023-02-03T09:33:08;9.50;;;3.80;;
65009;SDS011;51556;50.002;22.014;2023-02-03T09:35:34;10.20;;;4.70;;
65009;SDS011;51556;50.002;22.014;2023-02-03T09:37:59;14.40;;;6.50;;
65009;SDS011;51556;50.002;22.014;2023-02-03T09:40:29;16.10;;;6.50;;
65009;SDS011;51556;50.002;22.014;2023-02-03T09:43:12;9.10;;;3.90;;
65009;SDS011;51556;50.002;22.014;2023-02-03T09:45:40;3.00;;;1.90;;
65009;SDS011;51556;50.002;22.014;2023-02-03T09:48:10;6.30;;;2.90;;
65009;SDS011;51556;50.002;22.014;2023-02-03T09:50:41;5.50;;;2.80;;
65009;SDS011;51556;50.002;22.014;2023-02-03T09:55:55;4.60;;;2.60;;
65009;SDS011;51556;50.002;22.014;2023-02-03T09:58:22;4.90;;;2.70;;
65009;SDS011;51556;50.002;22.014;2023-02-03T10:06:20;6.70;;;3.40;;
65009;SDS011;51556;50.002;22.014;2023-02-03T10:20:25;10.20;;;4.00;;
65009;SDS011;51556;50.002;22.014;2023-02-03T10:23:17;8.90;;;4.20;;
65009;SDS011;51556;50.002;22.014;2023-02-03T10:25:52;10.40;;;3.80;;
65009;SDS011;51556;50.002;22.014;2023-02-03T10:28:23;6.90;;;3.30;;
65009;SDS011;51556;50.002;22.014;2023-02-03T10:31:01;5.30;;;2.80;;
65009;SDS011;51556;50.002;22.014;2023-02-03T10:33:32;6.20;;;2.60;;
65009;SDS011;51556;50.002;22.014;2023-02-03T10:38:58;6.90;;;3.30;;
65009;SDS011;51556;50.002;22.014;2023-02-03T10:41:29;6.30;;;3.40;;
65009;SDS011;51556;50.002;22.014;2023-02-03T10:43:56;11.50;;;4.30;;
65009;SDS011;51556;50.002;22.014;2023-02-03T10:46:31;5.80;;;3.00;;
65009;SDS011;51556;50.002;22.014;2023-02-03T10:48:59;6.50;;;2.60;;
65009;SDS011;51556;50.002;22.014;2023-02-03T10:51:25;5.90;;;3.20;;
65009;SDS011;51556;50.002;22.014;2023-02-03T10:53:59;5.80;;;3.00;;
65009;SDS011;51556;50.002;22.014;2023-02-03T10:56:25;7.80;;;3.40;;
65009;SDS011;51556;50.002;22.014;2023-02-03T10:58:57;7.70;;;3.20;;
65009;SDS011;51556;50.002;22.014;2023-02-03T11:01:37;8.10;;;3.80;;
65009;SDS011;51556;50.002;22.014;2023-02-03T11:04:06;8.40;;;3.30;;
65009;SDS011;51556;50.002;22.014;2023-02-03T11:06:53;5.00;;;2.90;;
65009;SDS011;51556;50.002;22.014;2023-02-03T11:09:39;4.70;;;2.70;;
65009;SDS011;51556;50.002;22.014;2023-02-03T11:14:35;10.40;;;4.10;;
65009;SDS011;51556;50.002;22.014;2023-02-03T11:17:06;10.70;;;4.20;;
65009;SDS011;51556;50.002;22.014;2023-02-03T11:19:38;8.30;;;3.80;;
65009;SDS011;51556;50.002;22.014;2023-02-03T11:22:03;7.40;;;3.20;;
65009;SDS011;51556;50.002;22.014;2023-02-03T11:24:30;5.70;;;2.80;;
65009;SDS011;51556;50.002;22.014;2023-02-03T11:27:10;5.40;;;3.00;;
65009;SDS011;51556;50.002;22.014;2023-02-03T11:29:43;4.90;;;2.80;;
65009;SDS011;51556;50.002;22.014;2023-02-03T11:32:18;7.60;;;2.60;;
65009;SDS011;51556;50.002;22.014;2023-02-03T11:34:48;4.10;;;2.30;;
65009;SDS011;51556;50.002;22.014;2023-02-03T11:40:34;6.70;;;3.50;;
65009;SDS011;51556;50.002;22.014;2023-02-03T11:43:27;6.50;;;3.50;;
65009;SDS011;51556;50.002;22.014;2023-02-03T11:45:41;17.20;;;11.20;;
65009;SDS011;51556;50.002;22.014;2023-02-03T12:07:28;6.20;;;2.60;;
65009;SDS011;51556;50.002;22.014;2023-02-03T12:12:50;7.80;;;3.20;;
65009;SDS011;51556;50.002;22.014;2023-02-03T12:15:37;9.90;;;4.40;;
65009;SDS011;51556;50.002;22.014;2023-02-03T12:29:32;11.30;;;5.80;;
65009;SDS011;51556;50.002;22.014;2023-02-03T12:35:22;8.20;;;4.60;;
65009;SDS011;51556;50.002;22.014;2023-02-03T12:41:10;6.60;;;3.50;;
65009;SDS011;51556;50.002;22.014;2023-02-03T12:46:18;5.70;;;2.20;;
65009;SDS011;51556;50.002;22.014;2023-02-03T12:51:37;3.70;;;2.20;;
65009;SDS011;51556;50.002;22.014;2023-02-03T12:59:45;6.60;;;2.50;;
65009;SDS011;51556;50.002;22.014;2023-02-03T13:02:23;6.90;;;2.50;;
65009;SDS011;51556;50.002;22.014;2023-02-03T13:04:53;5.10;;;2.50;;
65009;SDS011;51556;50.002;22.014;2023-02-03T13:07:45;6.30;;;2.60;;
65009;SDS011;51556;50.002;22.014;2023-02-03T13:13:19;4.50;;;2.20;;
65009;SDS011;51556;50.002;22.014;2023-02-03T13:15:53;3.30;;;1.80;;
65009;SDS011;51556;50.002;22.014;2023-02-03T13:18:25;3.30;;;1.80;;
65009;SDS011;51556;50.002;22.014;2023-02-03T13:20:55;5.70;;;3.10;;
65009;SDS011;51556;50.002;22.014;2023-02-03T13:23:21;4.10;;;1.90;;
65009;SDS011;51556;50.002;22.014;2023-02-03T13:42:40;4.40;;;2.20;;
65009;SDS011;51556;50.002;22.014;2023-02-03T13:47:36;5.00;;;2.70;;
65009;SDS011;51556;50.002;22.014;2023-02-03T13:50:07;5.40;;;3.00;;
65009;SDS011;51556;50.002;22.014;2023-02-03T13:53:02;4.40;;;2.70;;
65009;SDS011;51556;50.002;22.014;2023-02-03T13:55:38;5.40;;;2.50;;
65009;SDS011;51556;50.002;22.014;2023-02-03T13:58:18;4.40;;;1.90;;
65009;SDS011;51556;50.002;22.014;2023-02-03T14:03:16;5.20;;;2.40;;
65009;SDS011;51556;50.002;22.014;2023-02-03T14:06:02;6.10;;;2.30;;
65009;SDS011;51556;50.002;22.014;2023-02-03T14:19:00;3.60;;;2.10;;
65009;SDS011;51556;50.002;22.014;2023-02-03T14:21:27;3.70;;;1.90;;
65009;SDS011;51556;50.002;22.014;2023-02-03T14:24:03;4.50;;;1.90;;
65009;SDS011;51556;50.002;22.014;2023-02-03T14:26:36;2.90;;;2.30;;
65009;SDS011;51556;50.002;22.014;2023-02-03T14:29:08;3.40;;;1.80;;
65009;SDS011;51556;50.002;22.014;2023-02-03T14:34:35;19.20;;;7.40;;
65009;SDS011;51556;50.002;22.014;2023-02-03T14:39:38;12.10;;;4.50;;
65009;SDS011;51556;50.002;22.014;2023-02-03T14:48:08;19.00;;;7.10;;
65009;SDS011;51556;50.002;22.014;2023-02-03T14:50:53;6.80;;;3.60;;
65009;SDS011;51556;50.002;22.014;2023-02-03T14:59:15;14.30;;;5.80;;
65009;SDS011;51556;50.002;22.014;2023-02-03T15:06:41;6.40;;;3.60;;
65009;SDS011;51556;50.002;22.014;2023-02-03T15:09:30;10.00;;;4.20;;
65009;SDS011;51556;50.002;22.014;2023-02-03T15:12:00;6.50;;;3.40;;
65009;SDS011;51556;50.002;22.014;2023-02-03T15:14:28;13.10;;;5.40;;
65009;SDS011;51556;50.002;22.014;2023-02-03T15:16:58;11.10;;;5.30;;
65009;SDS011;51556;50.002;22.014;2023-02-03T15:19:27;11.70;;;5.40;;
65009;SDS011;51556;50.002;22.014;2023-02-03T15:21:59;9.70;;;4.70;;
65009;SDS011;51556;50.002;22.014;2023-02-03T15:24:32;9.60;;;4.50;;
65009;SDS011;51556;50.002;22.014;2023-02-03T15:27:00;11.10;;;5.40;;
65009;SDS011;51556;50.002;22.014;2023-02-03T15:29:43;8.10;;;4.80;;
65009;SDS011;51556;50.002;22.014;2023-02-03T15:32:11;14.30;;;6.90;;
65009;SDS011;51556;50.002;22.014;2023-02-03T15:34:42;17.20;;;7.90;;
65009;SDS011;51556;50.002;22.014;2023-02-03T15:37:16;16.90;;;9.40;;
65009;SDS011;51556;50.002;22.014;2023-02-03T15:39:58;11.80;;;6.70;;
65009;SDS011;51556;50.002;22.014;2023-02-03T15:42:51;12.40;;;5.20;;
65009;SDS011;51556;50.002;22.014;2023-02-03T15:45:32;9.60;;;4.80;;
65009;SDS011;51556;50.002;22.014;2023-02-03T15:48:22;15.30;;;4.80;;
65009;SDS011;51556;50.002;22.014;2023-02-03T15:51:12;7.90;;;4.50;;
65009;SDS011;51556;50.002;22.014;2023-02-03T15:53:44;9.40;;;5.10;;
65009;SDS011;51556;50.002;22.014;2023-02-03T15:57:03;15.20;;;6.00;;
65009;SDS011;51556;50.002;22.014;2023-02-03T16:04:41;14.50;;;6.70;;
65009;SDS011;51556;50.002;22.014;2023-02-03T16:07:12;13.60;;;6.40;;
65009;SDS011;51556;50.002;22.014;2023-02-03T16:09:41;16.70;;;7.30;;
65009;SDS011;51556;50.002;22.014;2023-02-03T16:14:51;12.70;;;6.40;;
65009;SDS011;51556;50.002;22.014;2023-02-03T16:17:22;15.30;;;7.20;;
65009;SDS011;51556;50.002;22.014;2023-02-03T16:23:00;11.90;;;5.60;;
65009;SDS011;51556;50.002;22.014;2023-02-03T16:25:30;10.30;;;5.00;;
65009;SDS011;51556;50.002;22.014;2023-02-03T16:27:58;8.50;;;4.10;;
65009;SDS011;51556;50.002;22.014;2023-02-03T16:33:59;11.40;;;5.50;;
65009;SDS011;51556;50.002;22.014;2023-02-03T16:36:43;10.10;;;4.80;;
65009;SDS011;51556;50.002;22.014;2023-02-03T16:39:27;10.30;;;4.80;;
65009;SDS011;51556;50.002;22.014;2023-02-03T16:42:15;11.60;;;4.20;;
65009;SDS011;51556;50.002;22.014;2023-02-03T16:45:02;24.40;;;8.50;;
65009;SDS011;51556;50.002;22.014;2023-02-03T16:47:47;13.50;;;5.70;;
65009;SDS011;51556;50.002;22.014;2023-02-03T16:50:31;12.20;;;5.20;;
65009;SDS011;51556;50.002;22.014;2023-02-03T16:53:28;7.70;;;4.20;;
65009;SDS011;51556;50.002;22.014;2023-02-03T16:55:55;11.50;;;5.20;;
65009;SDS011;51556;50.002;22.014;2023-02-03T16:58:21;9.20;;;5.30;;
65009;SDS011;51556;50.002;22.014;2023-02-03T17:00:48;10.90;;;5.10;;
65009;SDS011;51556;50.002;22.014;2023-02-03T17:03:17;8.40;;;4.30;;
65009;SDS011;51556;50.002;22.014;2023-02-03T17:05:44;8.50;;;4.80;;
65009;SDS011;51556;50.002;22.014;2023-02-03T17:08:11;7.60;;;3.50;;
65009;SDS011;51556;50.002;22.014;2023-02-03T17:10:39;6.40;;;3.50;;
65009;SDS011;51556;50.002;22.014;2023-02-03T17:13:06;7.90;;;4.10;;
65009;SDS011;51556;50.002;22.014;2023-02-03T17:15:32;7.70;;;4.50;;
65009;SDS011;51556;50.002;22.014;2023-02-03T17:17:59;7.60;;;3.20;;
65009;SDS011;51556;50.002;22.014;2023-02-03T17:20:24;6.60;;;3.20;;
65009;SDS011;51556;50.002;22.014;2023-02-03T17:22:50;8.80;;;3.90;;
65009;SDS011;51556;50.002;22.014;2023-02-03T17:25:18;7.60;;;3.00;;
65009;SDS011;51556;50.002;22.014;2023-02-03T17:27:45;4.80;;;2.20;;
65009;SDS011;51556;50.002;22.014;2023-02-03T17:30:11;9.50;;;3.90;;
65009;SDS011;51556;50.002;22.014;2023-02-03T17:32:37;7.10;;;4.30;;
65009;SDS011;51556;50.002;22.014;2023-02-03T17:35:03;9.10;;;5.00;;
65009;SDS011;51556;50.002;22.014;2023-02-03T17:37:31;9.30;;;5.50;;
65009;SDS011;51556;50.002;22.014;2023-02-03T17:39:57;11.50;;;7.00;;
65009;SDS011;51556;50.002;22.014;2023-02-03T17:42:22;7.90;;;5.50;;
65009;SDS011;51556;50.002;22.014;2023-02-03T17:44:48;10.50;;;7.00;;
65009;SDS011;51556;50.002;22.014;2023-02-03T17:47:13;14.30;;;9.00;;
65009;SDS011;51556;50.002;22.014;2023-02-03T17:49:38;15.60;;;11.30;;
65009;SDS011;51556;50.002;22.014;2023-02-03T17:52:04;10.80;;;7.20;;
65009;SDS011;51556;50.002;22.014;2023-02-03T17:54:29;20.30;;;10.80;;
65009;SDS011;51556;50.002;22.014;2023-02-03T17:56:55;15.00;;;8.70;;
65009;SDS011;51556;50.002;22.014;2023-02-03T17:59:21;20.70;;;12.10;;